地図

経路データ

SID SEASON NUMBER BASIN SUBBASIN NAME ISO_TIME NATURE LAT LON WMO_WIND WMO_PRES WMO_AGENCY TRACK_TYPE DIST2LAND LANDFALL IFLAG USA_AGENCY USA_ATCF_ID USA_LAT USA_LON USA_RECORD USA_STATUS USA_WIND USA_PRES USA_SSHS USA_R34_NE USA_R34_SE USA_R34_SW USA_R34_NW USA_R50_NE USA_R50_SE USA_R50_SW USA_R50_NW USA_R64_NE USA_R64_SE USA_R64_SW USA_R64_NW USA_POCI USA_ROCI USA_RMW USA_EYE TOKYO_LAT TOKYO_LON TOKYO_GRADE TOKYO_WIND TOKYO_PRES TOKYO_R50_DIR TOKYO_R50_LONG TOKYO_R50_SHORT TOKYO_R30_DIR TOKYO_R30_LONG TOKYO_R30_SHORT TOKYO_LAND CMA_LAT CMA_LON CMA_CAT CMA_WIND CMA_PRES HKO_LAT HKO_LON HKO_CAT HKO_WIND HKO_PRES NEWDELHI_LAT NEWDELHI_LON NEWDELHI_GRADE NEWDELHI_WIND NEWDELHI_PRES NEWDELHI_CI NEWDELHI_DP NEWDELHI_POCI REUNION_LAT REUNION_LON REUNION_TYPE REUNION_WIND REUNION_PRES REUNION_TNUM REUNION_CI REUNION_RMW REUNION_R34_NE REUNION_R34_SE REUNION_R34_SW REUNION_R34_NW REUNION_R50_NE REUNION_R50_SE REUNION_R50_SW REUNION_R50_NW REUNION_R64_NE REUNION_R64_SE REUNION_R64_SW REUNION_R64_NW BOM_LAT BOM_LON BOM_TYPE BOM_WIND BOM_PRES BOM_TNUM BOM_CI BOM_RMW BOM_R34_NE BOM_R34_SE BOM_R34_SW BOM_R34_NW BOM_R50_NE BOM_R50_SE BOM_R50_SW BOM_R50_NW BOM_R64_NE BOM_R64_SE BOM_R64_SW BOM_R64_NW BOM_ROCI BOM_POCI BOM_EYE BOM_POS_METHOD BOM_PRES_METHOD NADI_LAT NADI_LON NADI_CAT NADI_WIND NADI_PRES WELLINGTON_LAT WELLINGTON_LON WELLINGTON_WIND WELLINGTON_PRES DS824_LAT DS824_LON DS824_STAGE DS824_WIND DS824_PRES TD9636_LAT TD9636_LON TD9636_STAGE TD9636_WIND TD9636_PRES TD9635_LAT TD9635_LON TD9635_WIND TD9635_PRES TD9635_ROCI NEUMANN_LAT NEUMANN_LON NEUMANN_CLASS NEUMANN_WIND NEUMANN_PRES MLC_LAT MLC_LON MLC_CLASS MLC_WIND MLC_PRES USA_GUST BOM_GUST BOM_GUST_PER REUNION_GUST REUNION_GUST_PER USA_SEAHGT USA_SEARAD_NE USA_SEARAD_SE USA_SEARAD_SW USA_SEARAD_NW STORM_SPEED STORM_DIR
1964028S09131 1964 9 SI WA DORA 1964-01-27 23:00:00 NR -9.20000 131.200 main 134 134 __________O___ -1 -9.20000 131.200 7 4 261
1964028S09131 1964 9 SI WA DORA 1964-01-27 23:30:00 NR -9.20652 131.166 1006 bom main 134 134 ______O___P___ -1 -9.20000 131.000 1006 -9.20978 131.248 7 1 0
1964028S09131 1964 9 SI WA DORA 1964-01-28 00:00:00 TS -9.21333 131.199 main 134 134 O_____P__OP___ jtwc_sh SH131964 -9.20000 131.300 20 -1 -9.22395 131.053 1005 -9.20000 131.000 TC 15 1006 -9.21959 131.297 7 6 110
1964028S09131 1964 9 SI WA DORA 1964-01-28 03:00:00 TS -9.32032 131.479 main 147 147 P_____P__PP___ SH131964 -9.31501 131.537 20 -1 -9.36570 131.369 1005 -9.34247 131.317 TC 16 1005 -9.28053 131.584 7 6 111
1964028S09131 1964 9 SI WA DORA 1964-01-28 06:00:00 TS -9.42382 131.753 main 166 166 O_____P__PP_O_ jtwc_sh SH131964 -9.40000 131.800 20 -1 -9.49922 131.678 1005 -9.47783 131.627 TC 17 1005 -9.34962 131.865 7 -9.40000 131.700 TC 20 1005 6 109
1964028S09131 1964 9 SI WA DORA 1964-01-28 09:00:00 TS -9.51298 132.041 main 184 179 P_____P__PP_P_ SH131964 -9.44251 132.100 22 -1 -9.61768 131.971 1005 -9.59927 131.924 TC 18 1005 -9.43316 132.132 7 -9.57254 131.997 TC 20 1005 6 108
1964028S09131 1964 9 SI WA DORA 1964-01-28 11:00:00 TS -9.57428 132.230 main 179 179 P_____P__PO_P_ SH131964 -9.47454 132.303 24 -1 -9.68494 132.156 1005 -9.66914 132.111 TC 19 1005 -9.50000 132.300 7 -9.66529 132.198 TC 20 1005 6 109
1964028S09131 1964 9 SI WA DORA 1964-01-28 11:30:00 TS -9.59325 132.275 1005 bom main 179 179 P_____O__PP_P_ SH131964 -9.48619 132.352 24 -1 -9.70000 132.200 1005 -9.68494 132.156 TC 19 1005 -9.51836 132.341 7 -9.68379 132.249 TC 20 1005 6 111
1964028S09131 1964 9 SI WA DORA 1964-01-28 12:00:00 TS -9.60861 132.321 main 179 168 O_____P__OP_O_ jtwc_sh SH131964 -9.50000 132.400 25 -1 -9.71432 132.244 1005 -9.70000 132.200 TC 20 1005 -9.53735 132.381 7 -9.70000 132.300 TC 20 1005 6 111
1964028S09131 1964 9 SI WA DORA 1964-01-28 15:00:00 TS -9.71153 132.580 main 171 162 P_____P__PP_P_ SH131964 -9.64247 132.657 25 -1 -9.78827 132.493 1005 -9.77701 132.452 TC 18 1005 -9.66148 132.614 7 -9.75749 132.608 TC 20 1005 5 112
1964028S09131 1964 9 SI WA DORA 1964-01-28 18:00:00 TS -9.81490 132.829 main 166 159 O_____P__PP_O_ jtwc_sh SH131964 -9.80000 132.900 25 -1 -9.85308 132.733 1005 -9.84225 132.693 TC 17 1005 -9.79407 132.850 7 -9.80000 132.900 TC 20 1005 5 112
1964028S09131 1964 9 SI WA DORA 1964-01-28 21:00:00 TS -9.90970 133.071 main 169 160 P_____P__PP_P_ SH131964 -9.90742 133.128 25 -1 -9.92437 132.979 1005 -9.91137 132.937 TC 16 1005 -9.92266 133.107 7 -9.88495 133.150 TC 17 1005 5 111
1964028S09131 1964 9 SI WA DORA 1964-01-28 23:00:00 TS -9.97456 133.246 main 160 160 P_____P__PO_P_ SH131964 -9.96924 133.300 25 -1 -9.98321 133.154 1005 -9.96733 133.109 TC 15 1005 -10.0000 133.300 7 -9.95830 133.314 TC 15 1005 6 110
1964028S09131 1964 9 SI WA DORA 1964-01-28 23:30:00 TS -9.99110 133.294 1006 bom main 162 162 P_____O__PP_P_ SH131964 -9.98454 133.348 25 -1 -10.0000 133.200 1006 -9.98321 133.154 TC 15 1005 -10.0156 133.356 7 -9.97873 133.356 TC 15 1005 6 109
1964028S09131 1964 9 SI WA DORA 1964-01-29 00:00:00 TS -10.0085 133.344 main 162 159 O_____P__OP_O_ jtwc_sh SH131964 -10.0000 133.400 25 -1 -10.0208 133.249 1005 -10.0000 133.200 TC 15 1006 -10.0305 133.414 7 -10.0000 133.400 TC 15 1006 7 110
1964028S09131 1964 9 SI WA DORA 1964-01-29 03:00:00 TS -10.1277 133.686 main 169 166 P_____P__PP_P_ SH131964 -10.1075 133.785 22 -1 -10.1617 133.561 1005 -10.1366 133.507 TC 17 1005 -10.1106 133.788 7 -10.1425 133.693 TC 17 1005 7 109
1964028S09131 1964 9 SI WA DORA 1964-01-29 06:00:00 TS -10.2487 134.051 main 182 169 O_____P__PP_O_ jtwc_sh SH131964 -10.2000 134.200 20 -1 -10.3193 133.891 1004 -10.2925 133.835 TC 20 1004 -10.1805 134.182 7 -10.3000 134.000 TC 20 1004 7 108
1964028S09131 1964 9 SI WA DORA 1964-01-29 09:00:00 TS -10.3562 134.401 main 169 169 P_____P__PP_P_ SH131964 -10.2500 134.573 17 -1 -10.4781 134.226 1003 -10.4522 134.170 TC 22 1003 -10.2497 134.565 7 -10.4575 134.300 TC 22 1003 7 107
1964028S09131 1964 9 SI WA DORA 1964-01-29 11:00:00 TS -10.4243 134.622 main 179 179 P_____P__PO_P_ SH131964 -10.2802 134.797 15 -1 -10.5769 134.446 1003 -10.5530 134.391 TC 24 1003 -10.3000 134.800 2 -10.5557 134.500 TC 24 1003 7 108
1964028S09131 1964 9 SI WA DORA 1964-01-29 11:30:00 TS -10.4415 134.674 1003 bom main 185 175 P_____O__PP_P_ SH131964 -10.2895 134.850 15 -1 -10.6000 134.500 1003 -10.5769 134.446 TC 24 1003 -10.3148 134.851 2 -10.5783 134.550 TC 24 1003 6 108
1964028S09131 1964 9 SI WA DORA 1964-01-29 12:00:00 TS -10.4584 134.725 main 175 169 O_____P__OP_O_ jtwc_sh SH131964 -10.3000 134.900 15 -1 -10.6203 134.552 1002 -10.6000 134.500 TC 25 1003 -10.3299 134.900 2 -10.6000 134.600 TC 25 1003 6 110
1964028S09131 1964 9 SP EA DORA 1964-01-29 15:00:00 TS -10.5606 135.011 main 169 160 P_____P__PP_P_ SH131964 -10.3924 135.165 12 -1 -10.7318 134.858 1001 -10.7143 134.807 TC 26 1002 -10.4252 135.173 2 -10.7075 134.900 TC 25 1002 6 111
1964028S09131 1964 9 SP EA DORA 1964-01-29 18:00:00 TS -10.6620 135.280 main 160 146 O_____P__PP_O_ jtwc_sh SH131964 -10.5000 135.400 10 -1 -10.8307 135.157 1000 -10.8148 135.108 TC 27 1001 -10.5264 135.416 2 -10.8000 135.200 TC 25 1001 6 111
1964028S09131 1964 9 SP EA DORA 1964-01-29 21:00:00 TS -10.7603 135.551 main 145 145 P_____P__PP_P_ SH131964 -10.6000 135.650 -1 -10.9233 135.453 999 -10.9080 135.404 TC 28 1000 -10.6306 135.646 2 -10.9000 135.500 TC 27 1000 6 110
1964028S09131 1964 9 SP EA DORA 1964-01-29 23:00:00 TS -10.8256 135.731 main 145 145 P_____P__PO_P_ SH131964 -10.6667 135.817 -1 -10.9845 135.651 999 -10.9691 135.601 TC 29 999 -10.7000 135.800 1 -10.9667 135.700 TC 29 999 6 110
1964028S09131 1964 9 SP EA DORA 1964-01-29 23:30:00 TS -10.8418 135.777 999 bom main 145 134 P_____O__PP_P_ SH131964 -10.6833 135.858 -1 -11.0000 135.700 999 -10.9845 135.651 TC 29 999 -10.7161 135.843 1 -10.9833 135.750 TC 29 999 6 110
1964028S09131 1964 9 SP EA DORA 1964-01-30 00:00:00 TS -10.8582 135.823 main 134 120 O_____P__OP_O_ jtwc_sh SH131964 -10.7000 135.900 -1 -11.0173 135.754 998 -11.0000 135.700 TC 30 999 -10.7321 135.887 1 -11.0000 135.800 TC 30 999 6 110
1964028S09131 1964 9 SP EA DORA 1964-01-30 03:00:00 TS -10.9589 136.109 main 120 101 P_____P__PP_P_ SH131964 -10.8000 136.150 -1 -11.1215 136.079 998 -11.1041 136.024 TC 31 998 -10.8279 136.150 1 -11.1000 136.100 TC 32 998 6 110
1964028S09131 1964 9 SP EA DORA 1964-01-30 06:00:00 TS -11.0596 136.391 main 101 92 O_____P__PP_O_ jtwc_sh SH131964 -10.9000 136.400 -1 -11.2246 136.397 997 -11.2076 136.345 TC 32 998 -10.9254 136.407 1 -11.2000 136.400 TC 35 998 6 110
1964028S09131 1964 9 SP EA DORA 1964-01-30 09:00:00 TS -11.1585 136.671 main 92 92 P_____P__PP_P_ SH131964 -10.9925 136.665 -1 -11.3233 136.689 997 -11.3073 136.643 TC 33 997 -11.0276 136.650 1 -11.3075 136.715 TC 35 997 6 111
1964028S09131 1964 9 SP EA DORA 1964-01-30 11:00:00 TS -11.2249 136.841 main 95 95 P_____P__PO_P_ SH131964 -11.0610 136.828 -1 -11.3852 136.861 997 -11.3700 136.820 TC 34 997 -11.1000 136.800 1 -11.3724 136.911 TC 35 997 5 112
1964028S09131 1964 9 SP EA DORA 1964-01-30 11:30:00 TS -11.2416 136.880 997 bom main 99 89 P_____O__PP_P_ SH131964 -11.0800 136.865 -1 -11.4000 136.900 997 -11.3852 136.861 TC 34 997 -11.1178 136.835 1 -11.3867 136.957 TC 35 997 5 112
1964028S09131 1964 9 SP EA DORA 1964-01-30 12:00:00 TS -11.2579 136.918 main 89 89 O_____P__OP_O_ jtwc_sh SH131964 -11.1000 136.900 -1 -11.4113 136.937 996 -11.4000 136.900 TC 35 997 -11.1358 136.868 1 -11.4000 137.000 TC 35 997 4 117
1964028S09131 1964 9 SP EA DORA 1964-01-30 15:00:00 TS -11.3526 137.104 main 93 93 P_____P__PP_P_ SH131964 -11.2425 137.058 -1 -11.4711 137.130 993 -11.4617 137.101 TC 40 994 -11.2478 137.057 1 -11.4500 137.223 TC 40 994 4 120
1964028S09131 1964 9 SP EA DORA 1964-01-30 18:00:00 TS -11.4532 137.262 main 95 89 O_____P__PP_O_ jtwc_sh SH131964 -11.4000 137.200 -1 -11.5305 137.283 990 -11.5198 137.260 TC 45 991 -11.3690 137.228 1 -11.5000 137.400 TC 45 991 4 124
1964028S09131 1964 9 SP EA DORA 1964-01-30 21:00:00 TS -11.5635 137.426 main 89 89 P_____P__PP_P_ SH131964 -11.5500 137.400 -1 -11.6080 137.408 987 -11.5930 137.389 TC 50 988 -11.5026 137.391 1 -11.5775 137.565 TC 50 988 4 127
1964028S09131 1964 9 SP EA DORA 1964-01-30 23:00:00 TS -11.6485 137.530 main 95 86 P_____P__PO_P_ SH131964 -11.6500 137.536 -1 -11.6790 137.482 985 -11.6594 137.464 TC 53 985 -11.6000 137.500 2 -11.6526 137.658 TC 53 985 4 131
1964028S09131 1964 9 SP EA DORA 1964-01-30 23:30:00 TS -11.6716 137.555 985 bom main 93 93 P_____O__PP_P_ SH131964 -11.6750 137.569 -1 -11.7000 137.500 985 -11.6790 137.482 TC 54 985 -11.6250 137.530 2 -11.6754 137.680 TC 54 985 4 134
1964028S09131 1964 9 SP EA DORA 1964-01-31 00:00:00 TS -11.6960 137.580 main 93 86 O_____P__OP_O_ jtwc_sh SH131964 -11.7000 137.600 -1 -11.7253 137.519 984 -11.7000 137.500 TC 55 985 -11.6504 137.561 2 -11.7000 137.700 TC 55 985 4 141
1964028S09131 1964 9 SP EA DORA 1964-01-31 03:00:00 TS -11.8589 137.714 main 88 88 P_____P__PP_P_ SH131964 -11.8425 137.750 -1 -11.9037 137.621 983 -11.8675 137.609 TC 56 984 -11.8121 137.744 2 -11.8850 137.808 TC 55 984 4 144
1964028S09131 1964 9 SP EA DORA 1964-01-31 06:00:00 TS -12.0446 137.840 main 93 89 O_____P__PP_O_ jtwc_sh SH131964 -12.0000 137.900 -1 -12.1118 137.713 982 -12.0689 137.704 TC 57 983 -11.9871 137.924 2 -12.1000 137.900 TC 55 983 5 146
1964028S09131 1964 9 SP EA DORA 1964-01-31 09:00:00 TS -12.2465 137.985 main 109 108 P_____P__PP_P_ SH131964 -12.1925 138.107 -1 -12.3284 137.808 981 -12.2859 137.798 TC 58 982 -12.1724 138.095 2 -12.3075 137.993 TC 57 982 5 145
1964028S09131 1964 9 SP EA DORA 1964-01-31 11:00:00 TS -12.3829 138.082 main 120 120 P_____P__PO_P_ SH131964 -12.3307 138.242 -1 -12.4670 137.880 981 -12.4301 137.864 TC 59 981 -12.3000 138.200 2 -12.4390 138.061 TC 59 981 5 144
1964028S09131 1964 9 SP EA DORA 1964-01-31 11:30:00 TS -12.4168 138.105 981 bom main 120 120 P_____O__PP_P_ SH131964 -12.3654 138.272 -1 -12.5000 137.900 981 -12.4653 137.882 TC 59 981 -12.3345 138.224 2 -12.4700 138.080 TC 59 981 5 148
1964028S09131 1964 9 SP EA DORA 1964-01-31 12:00:00 TS -12.4498 138.128 main 120 120 O_____P__OP_O_ jtwc_sh SH131964 -12.4000 138.300 -1 -12.5294 137.922 981 -12.5000 137.900 TC 60 981 -12.3694 138.247 2 -12.5000 138.100 TC 60 981 5 146
1964028S09131 1964 9 SP EA DORA 1964-01-31 15:00:00 TS -12.6405 138.258 main 145 145 P_____P__PP_P_ SH131964 -12.6075 138.415 -1 -12.6976 138.064 981 -12.6870 138.034 TC -12.5858 138.377 2 -12.6575 138.243 TC 60 981 4 146
1964028S09131 1964 9 SP EA DORA 1964-01-31 18:00:00 TS -12.8199 138.383 main 162 162 O_____P__PP_O_ jtwc_sh SH131964 -12.8000 138.500 -1 -12.8541 138.221 981 -12.8657 138.183 TC -12.7998 138.497 2 -12.8000 138.400 TC 60 981 4 144
1964028S09131 1964 9 SP EA DORA 1964-01-31 21:00:00 TS -12.9851 138.514 main 180 180 P_____P__PP_P_ SH131964 -12.9650 138.593 -1 -13.0029 138.387 981 -13.0351 138.343 TC -12.9925 138.616 2 -12.9500 138.550 TC 60 981 4 141
1964028S09131 1964 9 SP EA DORA 1964-01-31 23:00:00 TS -13.0848 138.605 981 bom main 195 195 P_____O__PO_P_ SH131964 -13.0583 138.661 -1 -13.1000 138.500 981 -13.1422 138.455 TC -13.1000 138.700 1 -13.0500 138.650 TC 60 981 4 137
1964028S09131 1964 9 SP EA DORA 1964-02-01 00:00:00 TS -13.1314 138.653 main 205 205 O_____P__PP_O_ jtwc_sh SH131964 -13.1000 138.700 -1 -13.1530 138.556 980 -13.1939 138.512 TC -13.1418 138.747 1 -13.1000 138.700 TC 60 981 4 132
1964028S09131 1964 9 SP EA DORA 1964-02-01 03:00:00 TS -13.2619 138.806 main 212 212 P_____P__PP_P_ SH131964 -13.2150 138.842 -1 -13.3109 138.728 980 -13.3409 138.686 TC -13.2395 138.892 1 -13.2500 138.843 TC 60 980 4 128
1964028S09131 1964 9 SP EA DORA 1964-02-01 06:00:00 TS -13.3742 138.968 main 231 231 O_____P__PP_O_ jtwc_sh SH131964 -13.3000 139.000 -1 -13.4621 138.901 980 -13.4751 138.861 TC -13.3081 139.044 1 -13.4000 139.000 TC 60 980 4 123
1964028S09131 1964 9 SP EA DORA 1964-02-01 09:00:00 TS -13.4705 139.135 main 240 240 P_____P__PP_P_ SH131964 -13.3500 139.150 -1 -13.5999 139.069 980 -13.5952 139.033 TC -13.3631 139.197 1 -13.5650 139.207 TC 60 980 4 120
1964028S09131 1964 9 SP EA DORA 1964-02-01 11:00:00 TS -13.5283 139.244 main 250 241 P_____P__PO_P_ SH131964 -13.3802 139.250 -1 -13.6813 139.175 980 -13.6668 139.145 TC -13.4000 139.300 1 -13.6614 139.342 TC 60 980 4 119
1964028S09131 1964 9 SP EA DORA 1964-02-01 11:30:00 TS -13.5427 139.270 980 bom main 241 240 P_____O__PP_P_ SH131964 -13.3895 139.275 -1 -13.7000 139.200 980 -13.6836 139.173 TC -13.4119 139.324 1 -13.6817 139.372 TC 60 980 3 115
1964028S09131 1964 9 SP EA DORA 1964-02-01 12:00:00 TS -13.5569 139.295 main 240 229 O_____P__OP_O_ jtwc_sh SH131964 -13.4000 139.300 -1 -13.7176 139.222 980 -13.7000 139.200 TC 60 980 -13.4238 139.349 1 -13.7000 139.400 TC 60 980 3 123
1964028S09131 1964 9 SP EA DORA 1964-02-01 15:00:00 TS -13.6419 139.428 main 229 206 P_____P__PP_P_ SH131964 -13.5000 139.443 -1 -13.8105 139.345 980 -13.7889 139.338 TC 60 980 -13.4945 139.495 1 -13.7575 139.508 TC 60 980 3 122
1964028S09131 1964 9 SP EA DORA 1964-02-01 18:00:00 TS -13.7197 139.564 main 206 194 O_____P__PP_O_ jtwc_sh SH131964 -13.6000 139.600 -1 -13.8869 139.464 980 -13.8645 139.478 TC 60 980 -13.5670 139.642 1 -13.8000 139.600 TC 60 980 3 117
1964028S09131 1964 9 SP EA DORA 1964-02-01 21:00:00 TS -13.7887 139.726 main 194 183 P_____P__PP_P_ SH131964 -13.6500 139.800 -1 -13.9551 139.596 980 -13.9328 139.629 TC 60 980 -13.6443 139.794 1 -13.9000 139.735 TC 60 980 4 113
1964028S09131 1964 9 SP EA DORA 1964-02-01 23:00:00 TS -13.8346 139.842 980 bom main 183 172 P_____O__PO_P_ SH131964 -13.6803 139.936 -1 -14.0000 139.700 980 -13.9774 139.740 TC 60 980 -13.7000 139.900 1 -13.9697 139.842 TC 60 980 4 112
1964028S09131 1964 9 SP EA DORA 1964-02-02 00:00:00 TS -13.8586 139.903 main 172 151 O_____P__OP_O_ jtwc_sh SH131964 -13.7000 140.000 -1 -14.0243 139.763 979 -14.0000 139.800 TC 60 980 -13.7275 139.955 1 -14.0000 139.900 TC 60 980 4 113
1964028S09131 1964 9 SP EA DORA 1964-02-02 03:00:00 TS -13.9354 140.082 main 151 130 P_____P__PP_P_ SH131964 -13.7925 140.150 -1 -14.0957 139.975 979 -14.0669 140.008 TC 61 979 -13.8146 140.126 1 -14.0500 140.085 TC 62 979 4 114
1964028S09131 1964 9 SP EA DORA 1964-02-02 06:00:00 TS -14.0190 140.274 main 130 110 O_____P__PP_O_ jtwc_sh SH131964 -13.9000 140.300 -1 -14.1680 140.207 978 -14.1351 140.235 TC 62 978 -13.9108 140.302 1 -14.1000 140.300 TC 65 978 4 114
1964028S09131 1964 9 SP EA DORA 1964-02-02 09:00:00 TS -14.1087 140.491 main 110 99 P_____P__PP_P_ SH131964 -13.9925 140.500 -1 -14.2447 140.446 977 -14.2107 140.470 TC 63 977 -14.0193 140.481 1 -14.1925 140.550 TC 65 977 5 114
1964028S09131 1964 9 SP EA DORA 1964-02-02 11:00:00 TS -14.1757 140.636 977 bom main 102 92 P_____O__PO_P_ SH131964 -14.0610 140.636 -1 -14.3000 140.600 977 -14.2683 140.625 TC 64 977 -14.1000 140.600 2 -14.2641 140.720 TC 65 977 5 116
1964028S09131 1964 9 SP EA DORA 1964-02-02 12:00:00 TS -14.2091 140.705 main 92 68 O_____P__OP_O_ jtwc_sh SH131964 -14.1000 140.700 -1 -14.3137 140.670 976 -14.3000 140.700 TC 65 977 -14.1408 140.661 2 -14.3000 140.800 TC 65 977 4 119
1964028S09131 1964 9 SP EA DORA 1964-02-02 15:00:00 TS -14.3134 140.891 main 68 44 P_____P__PP_P_ SH131964 -14.2350 140.850 -1 -14.3538 140.874 976 -14.3836 140.918 TC 65 976 -14.2733 140.844 2 -14.4000 141.008 TC 67 976 4 123
1964028S09131 1964 9 SP EA DORA 1964-02-02 18:00:00 TS -14.4380 141.071 main 44 24 O_____P__PP_O_ jtwc_sh SH131964 -14.4000 141.000 -1 -14.4218 141.072 975 -14.4852 141.127 TC 65 975 -14.4208 141.024 2 -14.5000 141.200 TC 70 975 5 127
1964028S09131 1964 9 SP EA DORA 1964-02-02 21:00:00 TS -14.5868 141.267 main 24 21 P_____P__PP_P_ SH131964 -14.5925 141.207 -1 -14.5555 141.268 974 -14.6192 141.323 TC 65 974 -14.5833 141.195 2 -14.5775 141.400 TC 65 974 5 131
1964028S09131 1964 9 SP EA DORA 1964-02-02 23:00:00 TS -14.7074 141.394 974 bom main 21 21 P_____O__PO_P_ SH131964 -14.7307 141.342 -1 -14.7000 141.400 974 4 -14.7336 141.443 TC 65 974 -14.7000 141.300 2 -14.6495 141.533 TC 61 974 5 136
1964028S09131 1964 9 SP EA DORA 1964-02-03 00:00:00 TS -14.7768 141.453 main 15 10 O_____P__OP_O_ jtwc_sh SH131964 -14.8000 141.400 -1 -14.8006 141.467 974 -14.8000 141.500 TC 65 974 -14.7599 141.353 2 -14.7000 141.600 TC 60 974 6 142
1964028S09131 1964 9 SP EA DORA 1964-02-03 02:00:00 TS -14.9268 141.568 974 bom main 10 10 P_____O__PP_P_ SH131964 -14.9333 141.483 -1 -15.0000 141.600 974 -14.9599 141.630 TC 65 974 -14.8856 141.456 2 -14.8484 141.760 TC 56 974 6 144
1964028S09131 1964 9 SP EA DORA 1964-02-03 03:00:00 TS -15.0011 141.622 main 10 0 P_____P__PP_P_ SH131964 -15.0000 141.515 -1 -15.0750 141.676 974 -15.0459 141.687 TC 65 974 -14.9508 141.504 2 -14.9350 141.837 TC 55 974 5 148
1964028S09131 1964 9 SP EA DORA 1964-02-03 05:00:00 TS -15.1474 141.713 bom main 0 0 P_____I__PP_P_ SH131964 -15.1333 141.572 -1 -15.2000 141.800 974 -15.2183 141.775 TC 65 974 -15.0850 141.595 2 -15.1145 141.962 TC 51 974 5 151
1964028S09131 1964 9 SP EA DORA 1964-02-03 06:00:00 TS -15.2201 141.743 main 0 0 O_____P__IP_O_ jtwc_sh SH131964 -15.2000 141.600 -1 -15.2673 141.823 974 -15.3000 141.800 TC 65 974 -15.1534 141.637 2 -15.2000 142.000 TC 50 974 4 165
1964028S09131 1964 9 SP EA DORA 1964-02-03 09:00:00 TS -15.4260 141.783 main 0 0 P_____P__PP_P_ SH131964 -15.4000 141.708 -1 -15.4691 141.772 974 -15.5106 141.780 TC 65 974 -15.3614 141.745 2 -15.4150 141.988 TC 45 974 4 173
1964028S09131 1964 9 SP EA DORA 1964-02-03 11:00:00 TS -15.5578 141.784 975 bom main 0 0 P_____O__PO_P_ SH131964 -15.5333 141.772 -1 -15.6000 141.700 975 -15.6383 141.727 TC 65 974 -15.5000 141.800 4 -15.5417 141.930 TC 41 974 4 0
1964028S09131 1964 9 SP EA DORA 1964-02-03 12:00:00 TS -15.6214 141.785 main 0 0 O_____P__OP_O_ jtwc_sh SH131964 -15.6000 141.800 -1 -15.6620 141.686 976 -15.7000 141.700 TC 65 975 -15.5666 141.824 4 -15.6000 141.900 TC 40 975 4 0
1964028S09131 1964 9 SP EA DORA 1964-02-03 15:00:00 TS -15.8062 141.794 main 0 0 P_____P__PP_P_ SH131964 -15.8000 141.865 -1 -15.8394 141.651 979 -15.8814 141.662 TC 61 978 -15.7666 141.876 4 -15.7500 141.842 TC 37 978 4 180
1964028S09131 1964 9 SP EA DORA 1964-02-03 18:00:00 TS -15.9883 141.793 main 0 0 O_____P__PP_O_ jtwc_sh SH131964 -16.0000 141.900 -1 -16.0100 141.625 983 -16.0534 141.633 TC 57 982 -15.9666 141.901 4 -15.9000 141.800 TC 35 982 4 0
1964028S09131 1964 9 SP EA DORA 1964-02-03 21:00:00 TS -16.1774 141.791 main 0 0 P_____P__PP_P_ SH131964 -16.2000 141.915 -1 -16.1814 141.608 986 -16.2237 141.613 TC 53 985 -16.1666 141.905 4 -16.0925 141.792 TC 35 985 4 185
1964028S09131 1964 9 SP EA DORA 1964-02-03 23:00:00 TS -16.3062 141.786 989 bom main 0 0 P_____O__PO_P_ SH131964 -16.3333 141.908 -1 -16.3000 141.600 989 -16.3401 141.603 TC 51 987 -16.3000 141.900 2 -16.2307 141.797 TC 35 987 4 0
1964028S09131 1964 9 SP EA DORA 1964-02-04 00:00:00 TS -16.3717 141.782 main 0 0 O_____P__OP_O_ jtwc_sh SH131964 -16.4000 141.900 -1 -16.3621 141.595 989 -16.4000 141.600 TC 50 989 -16.3679 141.897 2 -16.3000 141.800 TC 35 989 4 0
1964028S09131 1964 9 SP EA DORA 1964-02-04 03:00:00 TS -16.5690 141.759 main 0 0 P_____P__PP_P_ SH131964 -16.6000 141.850 -1 -16.5533 141.587 990 -16.5887 141.589 TC 47 990 -16.5721 141.877 2 -16.5000 141.800 TC 35 990 4 187
1964028S09131 1964 9 SP EA DORA 1964-02-04 06:00:00 TS -16.7686 141.736 main 0 0 O_____P__PP_O_ jtwc_sh SH131964 -16.8000 141.800 -1 -16.7521 141.585 991 -16.7850 141.585 TC 45 991 -16.7746 141.847 2 -16.7000 141.800 TC 35 991 4 181
1964028S09131 1964 9 SP EA DORA 1964-02-04 09:00:00 TS -16.9724 141.730 main 0 0 P_____P__PP_P_ SH131964 -17.0075 141.792 -1 -16.9583 141.592 992 -16.9888 141.589 TC 42 992 -16.9724 141.816 2 -16.9000 141.800 TC 35 992 4 0
1964028S09131 1964 9 SP EA DORA 1964-02-04 11:00:00 TS -17.1067 141.732 993 bom main 0 0 P_____O__PO_P_ SH131964 -17.1390 141.797 -1 -17.1000 141.600 993 -17.1287 141.595 TC 40 992 -17.1000 141.800 1 -17.0333 141.800 TC 35 992 4 0
1964028S09131 1964 9 SP EA DORA 1964-02-04 12:00:00 TS -17.1720 141.734 main 0 0 O_____P__OP_O_ jtwc_sh SH131964 -17.2000 141.800 -1 -17.1729 141.606 993 -17.2000 141.600 TC 40 993 -17.1592 141.797 1 -17.1000 141.800 TC 35 993 4 0
1964028S09131 1964 9 SP EA DORA 1964-02-04 15:00:00 TS -17.3570 141.740 main 0 0 P_____P__PP_P_ SH131964 -17.3500 141.800 -1 -17.3975 141.631 994 -17.4219 141.622 TC 38 994 -17.3304 141.792 1 -17.2925 141.793 TC 35 994 4 0
1964028S09131 1964 9 SP EA DORA 1964-02-04 18:00:00 TS -17.5459 141.750 main 0 0 O_____P__PP_O_ jtwc_sh SH131964 -17.5000 141.800 -1 -17.6264 141.660 995 -17.6500 141.650 TC 37 995 -17.4990 141.793 1 -17.5000 141.800 TC 35 995 4 0
1964028S09131 1964 9 SP EA DORA 1964-02-04 21:00:00 TS -17.7568 141.769 main 0 0 P_____P__PP_P_ SH131964 -17.6925 141.800 -1 -17.8531 141.686 997 -17.8781 141.678 TC 36 996 -17.6745 141.797 1 -17.7500 141.850 TC 35 996 4 173
1964028S09131 1964 9 SP EA DORA 1964-02-04 23:00:00 TS -17.9014 141.780 998 bom main 0 0 P_____O__PO_P_ SH131964 -17.8307 141.800 -1 -18.0000 141.700 998 -18.0271 141.694 TC 35 997 -17.8000 141.800 1 -17.9198 141.886 TC 35 997 4 0
1964028S09131 1964 9 SP EA DORA 1964-02-05 00:00:00 TS -17.9737 141.786 main 0 0 O_____P__OP_O_ jtwc_sh SH131964 -17.9000 141.800 -1 -18.0712 141.709 998 -18.1000 141.700 TC 35 998 -17.8707 141.806 1 -18.0000 141.900 TC 35 998 4 176
1964028S09131 1964 9 SP EA DORA 1964-02-05 03:00:00 TS -18.1805 141.800 main 0 0 P_____P__PP_P_ SH131964 -18.0925 141.800 -1 -18.2800 141.735 998 -18.3153 141.731 TC 33 998 -18.0950 141.827 1 -18.2075 141.908 TC 35 998 4 179
1964028S09131 1964 9 SP EA DORA 1964-02-05 06:00:00 TS -18.3885 141.806 main 0 0 O_____P__PP_O_ jtwc_sh SH131964 -18.3000 141.800 -1 -18.4812 141.746 998 -18.5224 141.752 TC 32 998 -18.3276 141.840 1 -18.4000 141.900 TC 35 998 4 177
1964028S09131 1964 9 SP EA DORA 1964-02-05 09:00:00 TS -18.6095 141.810 main 0 0 P_____P__PP_P_ SH131964 -18.5500 141.815 -1 -18.6750 141.731 998 -18.7184 141.747 TC 31 998 -18.5561 141.828 1 -18.6075 141.922 TC 35 998 4 181
1964028S09131 1964 9 SP EA DORA 1964-02-05 11:00:00 TS -18.7533 141.794 999 bom main 0 0 P_____O__PO_P_ SH131964 -18.7197 141.811 -1 -18.8000 141.700 999 -18.8412 141.721 TC 30 998 -18.7000 141.800 1 -18.7390 141.917 TC 35 998 4 192
1964028S09131 1964 9 SP EA DORA 1964-02-05 12:00:00 TS -18.8248 141.777 main 0 0 O_____P__OP_O_ jtwc_sh SH131964 -18.8000 141.800 -1 -18.8727 141.681 999 -18.9000 141.700 TC 30 999 -18.7761 141.780 1 -18.8000 141.900 TC 35 999 4 199
1964028S09131 1964 9 SP EA DORA 1964-02-05 15:00:00 TS -19.0300 141.688 main 0 0 P_____P__PP_P_ SH131964 -19.0225 141.730 -1 -19.0900 141.600 999 -19.0969 141.606 TC 30 999 -18.9979 141.695 1 -18.9500 141.765 TC 32 999 4 208
1964028S09131 1964 9 SP EA DORA 1964-02-05 18:00:00 TS -19.2091 141.554 main 0 0 O_____P__PP_O_ jtwc_sh SH131964 -19.2000 141.600 -1 -19.2865 141.482 1000 -19.2750 141.468 TC 30 1000 -19.1932 141.574 1 -19.1000 141.600 TC 30 1000 4 219
1964028S09131 1964 9 SP EA DORA 1964-02-05 21:00:00 TS -19.3638 141.398 main 0 0 P_____P__PP_P_ SH131964 -19.3300 141.415 -1 -19.4372 141.325 1000 -19.4156 141.296 TC 30 1000 -19.3399 141.420 1 -19.3299 141.515 TC 30 1000 4 229
1964028S09131 1964 9 SP EA DORA 1964-02-05 23:00:00 TS -19.4342 141.277 1001 bom main 0 0 P_____O__PO_P_ SH131964 -19.3833 141.272 -1 -19.5000 141.200 1001 -19.4793 141.168 TC 30 1000 -19.4000 141.300 1 -19.4592 141.448 TC 30 1000 4 242
1964028S09131 1964 9 SP EA DORA 1964-02-06 00:00:00 TS -19.4556 141.210 main 0 0 O_____P__OP_O_ jtwc_sh SH131964 -19.4000 141.200 -1 -19.5161 141.126 1000 -19.5000 141.100 TC 30 1001 -19.4172 141.236 1 -19.5000 141.400 TC 30 1001 4 263
1964028S09131 1964 9 SP EA DORA 1964-02-06 03:00:00 TS -19.4673 140.993 main 0 0 P_____P__PP_P_ SH131964 -19.4300 141.008 -1 -19.5157 140.873 1000 -19.5199 140.876 TC 30 1000 -19.4209 141.021 1 -19.4875 141.172 TC 30 1000 4 275
1964028S09131 1964 9 SP EA DORA 1964-02-06 06:00:00 TS -19.4182 140.754 main 0 0 O_____P__PP_O_ jtwc_sh SH131964 -19.4000 140.800 -1 -19.4592 140.602 1000 -19.4828 140.635 TC 30 1000 -19.3669 140.785 1 -19.4000 140.900 TC 30 1000 5 285
1964028S09131 1964 9 SP EA DORA 1964-02-06 09:00:00 TS -19.3416 140.501 main 0 0 P_____P__PP_P_ SH131964 -19.3225 140.542 -1 -19.3686 140.345 1000 -19.4042 140.401 TC 30 1000 -19.2742 140.549 1 -19.3575 140.628 TC 30 1000 5 291
1964028S09131 1964 9 SP EA DORA 1964-02-06 11:00:00 TS -19.2746 140.346 1000 bom main 0 0 P_____O__PO_P_ SH131964 -19.2443 140.375 -1 -19.3000 140.200 1000 -19.3366 140.262 TC 30 1000 -19.2000 140.400 1 -19.3224 140.466 TC 30 1000 5 296
1964028S09131 1964 9 SP EA DORA 1964-02-06 12:00:00 TS -19.2403 140.280 main 0 0 O_____P__OP_O_ jtwc_sh SH131964 -19.2000 140.300 -1 -19.2757 140.147 1000 -19.3000 140.200 TC 30 1000 -19.1659 140.331 1 -19.3000 140.400 TC 30 1000 4 306
1964028S09131 1964 9 SP EA DORA 1964-02-06 15:00:00 TS -19.1238 140.130 main 0 0 P_____P__PP_P_ SH131964 -19.0499 140.143 -1 -19.1931 140.019 1000 -19.1964 140.064 TC 30 1000 -19.0461 140.134 1 -19.2074 140.278 TC 30 1000 4 313
1964028S09131 1964 9 SP EA DORA 1964-02-06 18:00:00 TS -18.9967 140.007 main 0 0 O_____P__PP_O_ jtwc_sh SH131964 -18.9000 140.000 -1 -19.0956 139.927 1000 -19.0723 139.963 TC 30 1000 -18.9122 139.954 1 -19.1000 140.200 TC 30 1000 3 314
1964028S09131 1964 9 SP EA DORA 1964-02-06 21:00:00 TS -18.8821 139.868 main 0 0 P_____P__PP_P_ SH131964 -18.7925 139.793 -1 -18.9832 139.851 1000 -18.9371 139.880 TC 30 1000 -18.7798 139.794 1 -19.0075 140.100 TC 30 1000 3 311
1964028S09131 1964 9 SP EA DORA 1964-02-06 23:00:00 TS -18.8076 139.779 1000 bom main 0 0 P_____O__PO_P_ SH131964 -18.7307 139.658 -1 -18.9000 139.800 1000 -18.8453 139.827 TC 30 1000 -18.7000 139.700 1 -18.9390 140.033 TC 30 1000 3 312
1964028S09131 1964 9 SP EA DORA 1964-02-07 00:00:00 TS -18.7702 139.735 main 0 0 O_____P__OP_O_ jtwc_sh SH131964 -18.7000 139.600 -1 -18.8530 139.758 999 -18.8000 139.800 TC 30 1000 -18.6683 139.649 1 -18.9000 140.000 TC 30 1000 3 316
1964028S09131 1964 9 SP EA DORA 1964-02-07 03:00:00 TS -18.6491 139.617 main 0 0 P_____P__PP_P_ SH131964 -18.5925 139.478 -1 -18.6995 139.628 997 -18.6685 139.711 TC 33 997 -18.5841 139.510 1 -18.7575 139.900 TC 32 997 3 320
1964028S09131 1964 9 SP EA DORA 1964-02-07 06:00:00 TS -18.5323 139.520 main 0 0 O_____P__PP_O_ jtwc_sh SH131964 -18.5000 139.400 -1 -18.5394 139.511 994 -18.5426 139.612 TC 37 995 -18.5117 139.399 1 -18.6000 139.800 TC 35 995 3 321
1964028S09131 1964 9 SP EA DORA 1964-02-07 09:00:00 TS -18.4332 139.431 main 0 0 P_____P__PP_P_ SH131964 -18.4500 139.335 -1 -18.3881 139.427 992 -18.4204 139.508 TC 41 993 -18.4447 139.325 1 -18.4425 139.677 TC 37 993 2 322
1964028S09131 1964 9 SP EA DORA 1964-02-07 11:00:00 TS -18.3734 139.391 991 bom main 0 0 P_____O__PO_P_ SH131964 -18.4198 139.308 -1 -18.3000 139.400 991 -18.3400 139.436 TC 43 991 -18.4000 139.300 2 -18.3443 139.616 TC 39 991 2 328
1964028S09131 1964 9 SP EA DORA 1964-02-07 12:00:00 TS -18.3445 139.378 main 0 0 O_____P__OP_O_ jtwc_sh SH131964 -18.4000 139.300 -1 -18.2613 139.398 991 -18.3000 139.400 TC 45 991 -18.3725 139.287 2 -18.3000 139.600 TC 40 991 2 0
1964028S09131 1964 9 SP EA DORA 1964-02-07 15:00:00 TS -18.2479 139.373 main 0 0 P_____P___P_P_ SH131964 -18.3000 139.270 -1 -18.1655 139.431 991 TC -18.2889 139.276 2 -18.1850 139.620 TC 40 991 2 13
1964028S09131 1964 9 SP EA DORA 1964-02-07 18:00:00 TS -18.1639 139.420 main 0 0 O_____P___P_O_ jtwc_sh SH131964 -18.2000 139.300 -1 -18.0929 139.511 991 TC -18.2088 139.313 2 -18.1000 139.700 TC 40 991 2 43
1964028S09131 1964 9 SP EA DORA 1964-02-07 21:00:00 TS -18.1112 139.503 main 0 0 P_____P___P_P_ SH131964 -18.1425 139.413 -1 -18.0349 139.620 991 TC -18.1384 139.405 2 -18.0425 139.797 TC 40 991 2 64
1964028S09131 1964 9 SP EA DORA 1964-02-07 23:00:00 TS -18.0893 139.578 991 bom main 0 0 P_____O___O_P_ SH131964 -18.1140 139.531 -1 -18.0000 139.700 991 TC -18.1000 139.500 2 -18.0134 139.866 TC 40 991 2 77
1964028S09131 1964 9 SP EA DORA 1964-02-08 00:00:00 TS -18.0881 139.610 main 0 0 O_________P_O_ jtwc_sh SH131964 -18.1000 139.600 -1 -18.0863 139.558 2 -18.0000 139.900 TC 40 991 3 79
1964028S09131 1964 9 SP EA DORA 1964-02-08 03:00:00 TS -18.0472 139.815 main 0 0 P_________P___ SH131964 -18.0425 139.835 -1 -18.0565 139.775 2 TC 5 80
1964028S09131 1964 9 SP EA DORA 1964-02-08 06:00:00 TS -18.0122 140.079 main 0 0 O_________P___ jtwc_sh SH131964 -18.0000 140.100 -1 -18.0366 140.038 2 5 85
1964028S09131 1964 9 SP EA DORA 1964-02-08 09:00:00 TS -18.0057 140.344 main 0 0 P_________P___ SH131964 -18.0000 140.357 -1 -18.0172 140.318 2 5 89
1964028S09131 1964 9 SP EA DORA 1964-02-08 11:00:00 TS -18.0021 140.515 main 0 0 P_________O___ SH131964 -18.0031 140.522 -1 -18.0000 140.500 1 5 87
1964028S09131 1964 9 SP EA DORA 1964-02-08 12:00:00 TS -17.9947 140.590 main 0 0 O_________P___ jtwc_sh SH131964 -18.0000 140.600 -1 -17.9841 140.570 1 4 78
1964028S09131 1964 9 SP EA DORA 1964-02-08 15:00:00 TS -17.9482 140.790 main 0 0 P_________P___ SH131964 -17.9574 140.800 -1 -17.9299 140.770 1 4 75
1964028S09131 1964 9 SP EA DORA 1964-02-08 18:00:00 TS -17.8911 140.992 main 0 0 O_________P___ jtwc_sh SH131964 -17.9000 141.000 -1 -17.8734 140.976 1 4 76
1964028S09131 1964 9 SP EA DORA 1964-02-08 21:00:00 TS -17.8414 141.228 main 0 0 P_________P___ SH131964 -17.8500 141.235 -1 -17.8242 141.213 1 5 79
1964028S09131 1964 9 SP EA DORA 1964-02-08 23:00:00 TS -17.8111 141.406 main 0 0 P_________O___ SH131964 -17.8166 141.408 -1 -17.8000 141.400 1 5 79
1964028S09131 1964 9 SP EA DORA 1964-02-09 00:00:00 TS -17.7946 141.490 main 0 0 O_________P___ jtwc_sh SH131964 -17.8000 141.500 -1 -17.7838 141.470 1 5 77
1964028S09131 1964 9 SP EA DORA 1964-02-09 03:00:00 TS -17.7373 141.732 main 0 0 P_________P___ SH131964 -17.7347 141.748 -1 -17.7424 141.701 1 6 81
1964028S09131 1964 9 SP EA DORA 1964-02-09 06:00:00 TS -17.7086 142.076 main 0 0 O_________P___ jtwc_sh SH131964 -17.7000 142.100 -1 -17.7258 142.027 1 8 89
1964028S09131 1964 9 SP EA DORA 1964-02-09 09:00:00 TS -17.7247 142.548 main 0 0 P_________P___ SH131964 -17.7114 142.558 -1 -17.7514 142.528 1 11 94
1964028S09131 1964 9 SP EA DORA 1964-02-09 11:00:00 TS -17.7735 143.007 main 0 0 P_________O___ SH131964 -17.7602 143.010 -1 -17.8000 143.000 1 15 97
1964028S09131 1964 9 SP EA DORA 1964-02-09 12:00:00 TS -17.8114 143.305 main 0 0 O_________P___ jtwc_sh SH131964 -17.8000 143.300 -1 -17.8343 143.314 1 21 98
1964028S09131 1964 9 SP EA DORA 1964-02-09 15:00:00 TS -17.9769 144.456 main 0 0 P_________P___ SH131964 -17.9784 144.460 -1 -17.9738 144.447 1 24 99
1964028S09131 1964 9 SP EA DORA 1964-02-09 18:00:00 TS -18.1845 145.784 main 0 0 O_________P___ jtwc_sh SH131964 -18.2000 145.800 -1 -18.1536 145.751 1 25 99
1964028S09131 1964 9 SP EA DORA 1964-02-09 21:00:00 TS -18.3857 147.061 main 87 87 P_________P___ SH131964 -18.3999 147.053 -1 -18.3572 147.076 1 24 100
1964028S09131 1964 9 SP EA DORA 1964-02-09 23:00:00 TS -18.5222 147.858 main 113 109 P_________O___ SH131964 -18.5333 147.837 -1 -18.5000 147.900 1 20 22 101
1964028S09131 1964 9 SP EA DORA 1964-02-10 00:00:00 TS -18.5910 148.216 main 122 122 O_________P___ jtwc_sh SH131964 -18.6000 148.200 -1 -18.5731 148.247 1 20 19 102
1964028S09131 1964 9 SP EA DORA 1964-02-10 03:00:00 TS -18.7969 149.173 main 164 164 P_________P___ SH131964 -18.7914 149.153 -1 -18.8078 149.214 1 20 18 104
1964028S09131 1964 9 SP EA DORA 1964-02-10 06:00:00 TS -19.0161 150.030 main 192 192 O_________P___ jtwc_sh SH131964 -19.0000 150.000 -1 -19.0482 150.089 1 21 17 106
1964028S09131 1964 9 SP EA DORA 1964-02-10 09:00:00 TS -19.2670 150.879 main 246 246 P_________P___ SH131964 -19.2647 150.872 -1 -19.2717 150.893 1 22 17 107
1964028S09131 1964 9 SP EA DORA 1964-02-10 11:00:00 TS -19.4207 151.420 main 288 288 P_________O___ SH131964 -19.4310 151.431 -1 -19.4000 151.400 1 23 16 106
1964028S09131 1964 9 SP EA DORA 1964-02-10 12:00:00 TS -19.4845 151.691 main 313 313 O_________P___ jtwc_sh SH131964 -19.5000 151.700 -1 -19.4534 151.672 1 23 15 101
1964028S09131 1964 9 SP EA DORA 1964-02-10 15:00:00 TS -19.6160 152.482 main 364 364 P_________P___ SH131964 -19.6298 152.495 -1 -19.5883 152.454 1 23 14 99
1964028S09131 1964 9 SP EA DORA 1964-02-10 18:00:00 TS -19.6966 153.192 main 398 398 O_________P___ jtwc_sh SH131964 -19.7000 153.200 -1 -19.6897 153.176 1 23 13 97
1964028S09131 1964 9 SP EA DORA 1964-02-10 21:00:00 TS -19.7592 153.804 main 433 433 P_________P___ SH131964 -19.7571 153.795 -1 -19.7634 153.820 1 23 11 96
1964028S09131 1964 9 SP EA DORA 1964-02-10 23:00:00 TS -19.7905 154.159 main 464 464 P_________O___ SH131964 -19.7858 154.139 -1 -19.8000 154.200 1 23 10 95
1964028S09131 1964 9 SP EA DORA 1964-02-11 00:00:00 TS -19.8059 154.325 main 472 472 O_________P___ jtwc_sh SH131964 -19.8000 154.300 -1 -19.8178 154.375 1 22 9 96
1964028S09131 1964 9 SP EA DORA 1964-02-11 03:00:00 TS -19.8567 154.798 main 506 506 P_________P___ SH131964 -19.8574 154.780 -1 -19.8553 154.834 1 20 8 96
1964028S09131 1964 9 SP EA DORA 1964-02-11 06:00:00 TS -19.8922 155.207 main 540 540 O_________P___ jtwc_sh SH131964 -19.9000 155.200 -1 -19.8765 155.221 1 18 7 93
1964028S09131 1964 9 SP EA DORA 1964-02-11 09:00:00 TS -19.8967 155.562 main 576 576 P_________P___ SH131964 -19.8998 155.558 -1 -19.8904 155.571 1 16 7 91
1964028S09131 1964 9 SP EA DORA 1964-02-11 11:00:00 TS -19.8979 155.789 main 594 594 P_________O___ SH131964 -19.8968 155.783 -1 -19.9000 155.800 1 15 6 91
1964028S09131 1964 9 SP EA DORA 1964-02-11 12:00:00 TS -19.9023 155.907 main 603 603 O_________P___ jtwc_sh SH131964 -19.9000 155.900 -1 -19.9058 155.917 1 14 7 94
1964028S09131 1964 9 SP EA DORA 1964-02-11 15:00:00 TS -19.9324 156.282 main 628 628 P_________P___ SH131964 -19.9378 156.285 -1 -19.9270 156.280 1 11 7 95
1964028S09131 1964 9 SP EA DORA 1964-02-11 18:00:00 TS -19.9716 156.674 main 640 640 O_________P___ jtwc_sh SH131964 -20.0000 156.700 -1 -19.9527 156.656 1 9 7 94
1964028S09131 1964 9 SP EA DORA 1964-02-11 21:00:00 NR -19.9809 157.041 main 657 657 __________P___ SH131964 -1 -19.9809 157.041 1 6 7 93
1964028S09131 1964 9 SP EA DORA 1964-02-11 23:00:00 NR -20.0000 157.300 main 675 __________O___ SH131964 -1 -20.0000 157.300 1 5 7 94

IBTrACS Databaseについて

本データベースは、米国NOAAが公開する1842年以降の世界の熱帯低気圧のベストトラックデータアーカイブInternational Best Track Archive for Climate Stewardship (IBTrACS)を、ウェブで閲覧しやすい形式に変換したものです。

最終更新日:2021-11-26